sensor_id;sensor_type;location;lat;lon;timestamp;P1;durP1;ratioP1;P2;durP2;ratioP2
45476;SDS011;31958;51.756;-2.556;2023-06-26T00:02:10;7.03;;;1.90;;
45476;SDS011;31958;51.756;-2.556;2023-06-26T00:04:35;4.90;;;2.00;;
45476;SDS011;31958;51.756;-2.556;2023-06-26T00:07:02;5.38;;;2.28;;
45476;SDS011;31958;51.756;-2.556;2023-06-26T00:09:28;12.68;;;2.38;;
45476;SDS011;31958;51.756;-2.556;2023-06-26T00:11:54;7.50;;;2.33;;
45476;SDS011;31958;51.756;-2.556;2023-06-26T00:14:19;5.65;;;2.08;;
45476;SDS011;31958;51.756;-2.556;2023-06-26T00:16:45;9.48;;;2.50;;
45476;SDS011;31958;51.756;-2.556;2023-06-26T00:19:11;7.85;;;2.38;;
45476;SDS011;31958;51.756;-2.556;2023-06-26T00:21:36;7.00;;;2.13;;
45476;SDS011;31958;51.756;-2.556;2023-06-26T00:24:02;12.10;;;2.22;;
45476;SDS011;31958;51.756;-2.556;2023-06-26T00:26:27;11.30;;;2.45;;
45476;SDS011;31958;51.756;-2.556;2023-06-26T00:28:53;12.00;;;2.40;;
45476;SDS011;31958;51.756;-2.556;2023-06-26T00:31:18;10.02;;;2.58;;
45476;SDS011;31958;51.756;-2.556;2023-06-26T00:33:43;12.38;;;2.33;;
45476;SDS011;31958;51.756;-2.556;2023-06-26T00:36:09;11.07;;;2.30;;
45476;SDS011;31958;51.756;-2.556;2023-06-26T00:38:34;9.80;;;2.75;;
45476;SDS011;31958;51.756;-2.556;2023-06-26T00:41:00;6.45;;;1.95;;
45476;SDS011;31958;51.756;-2.556;2023-06-26T00:43:25;7.15;;;1.90;;
45476;SDS011;31958;51.756;-2.556;2023-06-26T00:45:51;9.98;;;2.10;;
45476;SDS011;31958;51.756;-2.556;2023-06-26T00:48:16;5.78;;;2.10;;
45476;SDS011;31958;51.756;-2.556;2023-06-26T00:50:42;5.32;;;2.10;;
45476;SDS011;31958;51.756;-2.556;2023-06-26T00:53:09;9.50;;;2.40;;
45476;SDS011;31958;51.756;-2.556;2023-06-26T00:55:34;13.52;;;2.80;;
45476;SDS011;31958;51.756;-2.556;2023-06-26T00:58:00;12.80;;;2.97;;
45476;SDS011;31958;51.756;-2.556;2023-06-26T01:00:25;8.93;;;2.85;;
45476;SDS011;31958;51.756;-2.556;2023-06-26T01:02:50;5.28;;;2.13;;
45476;SDS011;31958;51.756;-2.556;2023-06-26T01:05:16;11.88;;;2.40;;
45476;SDS011;31958;51.756;-2.556;2023-06-26T01:07:45;10.73;;;2.55;;
45476;SDS011;31958;51.756;-2.556;2023-06-26T01:10:13;7.82;;;2.28;;
45476;SDS011;31958;51.756;-2.556;2023-06-26T01:12:39;6.57;;;2.28;;
45476;SDS011;31958;51.756;-2.556;2023-06-26T01:15:04;5.97;;;2.50;;
45476;SDS011;31958;51.756;-2.556;2023-06-26T01:17:30;8.45;;;2.30;;
45476;SDS011;31958;51.756;-2.556;2023-06-26T01:19:57;8.85;;;2.30;;
45476;SDS011;31958;51.756;-2.556;2023-06-26T01:27:33;8.45;;;2.22;;
45476;SDS011;31958;51.756;-2.556;2023-06-26T01:30:00;11.90;;;2.05;;
45476;SDS011;31958;51.756;-2.556;2023-06-26T01:32:29;13.77;;;2.28;;
45476;SDS011;31958;51.756;-2.556;2023-06-26T01:34:55;7.10;;;2.17;;
45476;SDS011;31958;51.756;-2.556;2023-06-26T01:37:21;5.53;;;1.77;;
45476;SDS011;31958;51.756;-2.556;2023-06-26T01:39:46;7.13;;;1.92;;
45476;SDS011;31958;51.756;-2.556;2023-06-26T01:42:12;6.20;;;2.28;;
45476;SDS011;31958;51.756;-2.556;2023-06-26T01:44:39;4.63;;;2.00;;
45476;SDS011;31958;51.756;-2.556;2023-06-26T01:47:09;14.82;;;2.35;;
45476;SDS011;31958;51.756;-2.556;2023-06-26T01:52:25;13.65;;;2.47;;
45476;SDS011;31958;51.756;-2.556;2023-06-26T01:57:48;11.27;;;2.40;;
45476;SDS011;31958;51.756;-2.556;2023-06-26T02:00:17;7.72;;;3.22;;
45476;SDS011;31958;51.756;-2.556;2023-06-26T02:02:43;8.63;;;2.05;;
45476;SDS011;31958;51.756;-2.556;2023-06-26T02:05:09;7.78;;;2.22;;
45476;SDS011;31958;51.756;-2.556;2023-06-26T02:07:34;6.72;;;2.20;;
45476;SDS011;31958;51.756;-2.556;2023-06-26T02:10:00;4.90;;;2.22;;
45476;SDS011;31958;51.756;-2.556;2023-06-26T02:12:25;4.97;;;1.80;;
45476;SDS011;31958;51.756;-2.556;2023-06-26T02:14:50;9.85;;;2.40;;
45476;SDS011;31958;51.756;-2.556;2023-06-26T02:17:16;9.73;;;2.30;;
45476;SDS011;31958;51.756;-2.556;2023-06-26T02:19:41;8.05;;;2.53;;
45476;SDS011;31958;51.756;-2.556;2023-06-26T02:22:12;6.47;;;2.53;;
45476;SDS011;31958;51.756;-2.556;2023-06-26T02:24:41;11.15;;;2.20;;
45476;SDS011;31958;51.756;-2.556;2023-06-26T02:27:07;9.13;;;2.88;;
45476;SDS011;31958;51.756;-2.556;2023-06-26T02:29:32;5.45;;;2.15;;
45476;SDS011;31958;51.756;-2.556;2023-06-26T02:31:57;3.72;;;2.03;;
45476;SDS011;31958;51.756;-2.556;2023-06-26T02:34:23;15.75;;;2.50;;
45476;SDS011;31958;51.756;-2.556;2023-06-26T02:36:48;4.72;;;2.33;;
45476;SDS011;31958;51.756;-2.556;2023-06-26T02:39:14;7.47;;;2.25;;
45476;SDS011;31958;51.756;-2.556;2023-06-26T02:41:39;10.35;;;2.50;;
45476;SDS011;31958;51.756;-2.556;2023-06-26T02:44:05;8.73;;;2.33;;
45476;SDS011;31958;51.756;-2.556;2023-06-26T02:46:31;9.38;;;2.17;;
45476;SDS011;31958;51.756;-2.556;2023-06-26T02:48:56;11.82;;;2.20;;
45476;SDS011;31958;51.756;-2.556;2023-06-26T02:51:22;8.50;;;2.42;;
45476;SDS011;31958;51.756;-2.556;2023-06-26T02:53:47;11.05;;;1.92;;
45476;SDS011;31958;51.756;-2.556;2023-06-26T02:56:12;14.52;;;2.63;;
45476;SDS011;31958;51.756;-2.556;2023-06-26T02:58:38;9.05;;;2.35;;
45476;SDS011;31958;51.756;-2.556;2023-06-26T03:01:03;6.55;;;2.67;;
45476;SDS011;31958;51.756;-2.556;2023-06-26T03:03:28;8.35;;;1.98;;
45476;SDS011;31958;51.756;-2.556;2023-06-26T03:05:54;7.07;;;1.98;;
45476;SDS011;31958;51.756;-2.556;2023-06-26T03:08:19;5.43;;;2.35;;
45476;SDS011;31958;51.756;-2.556;2023-06-26T03:10:44;7.70;;;2.30;;
45476;SDS011;31958;51.756;-2.556;2023-06-26T03:13:10;12.23;;;2.33;;
45476;SDS011;31958;51.756;-2.556;2023-06-26T03:15:35;9.25;;;2.17;;
45476;SDS011;31958;51.756;-2.556;2023-06-26T03:18:00;7.95;;;2.08;;
45476;SDS011;31958;51.756;-2.556;2023-06-26T03:20:26;9.73;;;2.22;;
45476;SDS011;31958;51.756;-2.556;2023-06-26T03:22:51;6.70;;;2.20;;
45476;SDS011;31958;51.756;-2.556;2023-06-26T03:25:17;8.70;;;2.78;;
45476;SDS011;31958;51.756;-2.556;2023-06-26T03:27:42;9.48;;;2.30;;
45476;SDS011;31958;51.756;-2.556;2023-06-26T03:30:08;6.22;;;2.13;;
45476;SDS011;31958;51.756;-2.556;2023-06-26T03:32:33;8.35;;;2.90;;
45476;SDS011;31958;51.756;-2.556;2023-06-26T03:34:59;7.65;;;2.35;;
45476;SDS011;31958;51.756;-2.556;2023-06-26T03:37:26;7.57;;;2.50;;
45476;SDS011;31958;51.756;-2.556;2023-06-26T03:39:52;9.15;;;2.40;;
45476;SDS011;31958;51.756;-2.556;2023-06-26T03:42:17;8.75;;;2.17;;
45476;SDS011;31958;51.756;-2.556;2023-06-26T03:44:42;10.95;;;2.40;;
45476;SDS011;31958;51.756;-2.556;2023-06-26T03:47:07;5.97;;;2.38;;
45476;SDS011;31958;51.756;-2.556;2023-06-26T03:49:33;7.70;;;2.35;;
45476;SDS011;31958;51.756;-2.556;2023-06-26T03:51:58;9.25;;;2.50;;
45476;SDS011;31958;51.756;-2.556;2023-06-26T03:54:23;4.78;;;2.15;;
45476;SDS011;31958;51.756;-2.556;2023-06-26T03:56:49;11.82;;;2.75;;
45476;SDS011;31958;51.756;-2.556;2023-06-26T03:59:14;13.77;;;2.80;;
45476;SDS011;31958;51.756;-2.556;2023-06-26T04:01:39;6.43;;;2.22;;
45476;SDS011;31958;51.756;-2.556;2023-06-26T04:04:05;7.65;;;2.70;;
45476;SDS011;31958;51.756;-2.556;2023-06-26T04:06:30;7.40;;;2.38;;
45476;SDS011;31958;51.756;-2.556;2023-06-26T04:08:58;5.68;;;1.92;;
45476;SDS011;31958;51.756;-2.556;2023-06-26T04:11:24;9.93;;;2.50;;
45476;SDS011;31958;51.756;-2.556;2023-06-26T04:13:50;5.22;;;1.73;;
45476;SDS011;31958;51.756;-2.556;2023-06-26T04:16:15;8.93;;;2.10;;
45476;SDS011;31958;51.756;-2.556;2023-06-26T04:18:40;5.18;;;1.80;;
45476;SDS011;31958;51.756;-2.556;2023-06-26T04:21:10;7.60;;;2.22;;
45476;SDS011;31958;51.756;-2.556;2023-06-26T04:23:39;5.70;;;2.08;;
45476;SDS011;31958;51.756;-2.556;2023-06-26T04:26:06;7.10;;;2.33;;
45476;SDS011;31958;51.756;-2.556;2023-06-26T04:28:32;3.65;;;2.03;;
45476;SDS011;31958;51.756;-2.556;2023-06-26T04:30:58;9.05;;;2.15;;
45476;SDS011;31958;51.756;-2.556;2023-06-26T04:33:24;4.80;;;1.80;;
45476;SDS011;31958;51.756;-2.556;2023-06-26T04:35:50;7.43;;;1.77;;
45476;SDS011;31958;51.756;-2.556;2023-06-26T04:38:16;6.97;;;2.35;;
45476;SDS011;31958;51.756;-2.556;2023-06-26T04:40:41;7.47;;;2.10;;
45476;SDS011;31958;51.756;-2.556;2023-06-26T04:43:06;10.98;;;1.98;;
45476;SDS011;31958;51.756;-2.556;2023-06-26T04:45:31;5.07;;;1.95;;
45476;SDS011;31958;51.756;-2.556;2023-06-26T04:47:57;10.02;;;2.22;;
45476;SDS011;31958;51.756;-2.556;2023-06-26T04:50:22;12.93;;;2.72;;
45476;SDS011;31958;51.756;-2.556;2023-06-26T04:52:48;4.13;;;2.25;;
45476;SDS011;31958;51.756;-2.556;2023-06-26T04:55:13;6.18;;;1.63;;
45476;SDS011;31958;51.756;-2.556;2023-06-26T04:57:38;6.00;;;1.95;;
45476;SDS011;31958;51.756;-2.556;2023-06-26T05:00:04;6.50;;;1.52;;
45476;SDS011;31958;51.756;-2.556;2023-06-26T05:02:34;5.47;;;1.30;;
45476;SDS011;31958;51.756;-2.556;2023-06-26T05:05:00;6.07;;;1.50;;
45476;SDS011;31958;51.756;-2.556;2023-06-26T05:07:26;3.45;;;1.33;;
45476;SDS011;31958;51.756;-2.556;2023-06-26T05:09:51;5.15;;;1.63;;
45476;SDS011;31958;51.756;-2.556;2023-06-26T05:12:16;6.07;;;1.45;;
45476;SDS011;31958;51.756;-2.556;2023-06-26T05:14:42;2.70;;;1.30;;
45476;SDS011;31958;51.756;-2.556;2023-06-26T05:17:07;4.88;;;1.27;;
45476;SDS011;31958;51.756;-2.556;2023-06-26T05:19:32;6.18;;;1.30;;
45476;SDS011;31958;51.756;-2.556;2023-06-26T05:21:58;7.72;;;1.38;;
45476;SDS011;31958;51.756;-2.556;2023-06-26T05:24:24;3.75;;;1.10;;
45476;SDS011;31958;51.756;-2.556;2023-06-26T05:26:50;5.75;;;1.25;;
45476;SDS011;31958;51.756;-2.556;2023-06-26T05:29:16;3.78;;;1.13;;
45476;SDS011;31958;51.756;-2.556;2023-06-26T05:31:41;3.88;;;1.27;;
45476;SDS011;31958;51.756;-2.556;2023-06-26T05:34:07;4.38;;;1.27;;
45476;SDS011;31958;51.756;-2.556;2023-06-26T05:36:33;3.53;;;1.25;;
45476;SDS011;31958;51.756;-2.556;2023-06-26T05:38:59;4.20;;;1.38;;
45476;SDS011;31958;51.756;-2.556;2023-06-26T05:41:24;4.00;;;1.10;;
45476;SDS011;31958;51.756;-2.556;2023-06-26T05:43:50;3.42;;;1.25;;
45476;SDS011;31958;51.756;-2.556;2023-06-26T05:46:15;3.13;;;1.23;;
45476;SDS011;31958;51.756;-2.556;2023-06-26T05:48:41;4.95;;;1.50;;
45476;SDS011;31958;51.756;-2.556;2023-06-26T05:51:06;2.95;;;1.20;;
45476;SDS011;31958;51.756;-2.556;2023-06-26T05:53:32;3.58;;;1.00;;
45476;SDS011;31958;51.756;-2.556;2023-06-26T05:55:58;3.13;;;1.17;;
45476;SDS011;31958;51.756;-2.556;2023-06-26T05:58:23;4.63;;;1.27;;
45476;SDS011;31958;51.756;-2.556;2023-06-26T06:00:52;4.22;;;1.58;;
45476;SDS011;31958;51.756;-2.556;2023-06-26T06:03:17;3.47;;;1.33;;
45476;SDS011;31958;51.756;-2.556;2023-06-26T06:05:43;5.30;;;1.20;;
45476;SDS011;31958;51.756;-2.556;2023-06-26T06:08:08;3.20;;;1.10;;
45476;SDS011;31958;51.756;-2.556;2023-06-26T06:10:34;5.88;;;1.80;;
45476;SDS011;31958;51.756;-2.556;2023-06-26T06:12:59;3.15;;;1.30;;
45476;SDS011;31958;51.756;-2.556;2023-06-26T06:15:25;5.07;;;1.13;;
45476;SDS011;31958;51.756;-2.556;2023-06-26T06:17:50;2.85;;;1.13;;
45476;SDS011;31958;51.756;-2.556;2023-06-26T06:20:16;4.25;;;1.20;;
45476;SDS011;31958;51.756;-2.556;2023-06-26T06:22:42;5.50;;;1.40;;
45476;SDS011;31958;51.756;-2.556;2023-06-26T06:25:07;5.88;;;1.52;;
45476;SDS011;31958;51.756;-2.556;2023-06-26T06:27:33;3.38;;;1.30;;
45476;SDS011;31958;51.756;-2.556;2023-06-26T06:29:58;6.60;;;1.45;;
45476;SDS011;31958;51.756;-2.556;2023-06-26T06:32:24;5.30;;;1.30;;
45476;SDS011;31958;51.756;-2.556;2023-06-26T06:34:49;7.35;;;1.50;;
45476;SDS011;31958;51.756;-2.556;2023-06-26T06:37:14;4.95;;;1.30;;
45476;SDS011;31958;51.756;-2.556;2023-06-26T06:39:40;4.50;;;1.38;;
45476;SDS011;31958;51.756;-2.556;2023-06-26T06:42:05;4.15;;;1.70;;
45476;SDS011;31958;51.756;-2.556;2023-06-26T06:44:30;3.72;;;1.40;;
45476;SDS011;31958;51.756;-2.556;2023-06-26T06:46:56;7.13;;;1.40;;
45476;SDS011;31958;51.756;-2.556;2023-06-26T06:49:21;4.80;;;1.33;;
45476;SDS011;31958;51.756;-2.556;2023-06-26T06:51:46;2.65;;;1.20;;
45476;SDS011;31958;51.756;-2.556;2023-06-26T06:54:12;5.05;;;1.75;;
45476;SDS011;31958;51.756;-2.556;2023-06-26T06:56:37;4.05;;;1.30;;
45476;SDS011;31958;51.756;-2.556;2023-06-26T06:59:02;4.47;;;1.48;;
45476;SDS011;31958;51.756;-2.556;2023-06-26T07:01:28;5.40;;;1.42;;
45476;SDS011;31958;51.756;-2.556;2023-06-26T07:03:53;4.45;;;1.27;;
45476;SDS011;31958;51.756;-2.556;2023-06-26T07:06:18;3.67;;;1.40;;
45476;SDS011;31958;51.756;-2.556;2023-06-26T07:08:44;4.32;;;1.60;;
45476;SDS011;31958;51.756;-2.556;2023-06-26T07:11:09;2.95;;;1.40;;
45476;SDS011;31958;51.756;-2.556;2023-06-26T07:13:34;7.57;;;1.30;;
45476;SDS011;31958;51.756;-2.556;2023-06-26T07:16:00;2.55;;;1.27;;
45476;SDS011;31958;51.756;-2.556;2023-06-26T07:18:25;5.97;;;1.55;;
45476;SDS011;31958;51.756;-2.556;2023-06-26T07:20:50;4.60;;;1.45;;
45476;SDS011;31958;51.756;-2.556;2023-06-26T07:23:16;2.47;;;1.20;;
45476;SDS011;31958;51.756;-2.556;2023-06-26T07:25:41;5.90;;;1.45;;
45476;SDS011;31958;51.756;-2.556;2023-06-26T07:28:10;5.78;;;1.40;;
45476;SDS011;31958;51.756;-2.556;2023-06-26T07:30:36;5.55;;;1.58;;
45476;SDS011;31958;51.756;-2.556;2023-06-26T07:33:01;7.43;;;1.50;;
45476;SDS011;31958;51.756;-2.556;2023-06-26T07:35:26;6.18;;;1.40;;
45476;SDS011;31958;51.756;-2.556;2023-06-26T07:37:52;5.00;;;1.48;;
45476;SDS011;31958;51.756;-2.556;2023-06-26T07:40:18;3.67;;;1.30;;
45476;SDS011;31958;51.756;-2.556;2023-06-26T07:42:43;6.53;;;1.33;;
45476;SDS011;31958;51.756;-2.556;2023-06-26T07:45:09;4.55;;;1.50;;
45476;SDS011;31958;51.756;-2.556;2023-06-26T07:47:37;7.32;;;1.30;;
45476;SDS011;31958;51.756;-2.556;2023-06-26T07:50:03;4.13;;;1.20;;
45476;SDS011;31958;51.756;-2.556;2023-06-26T07:52:28;7.25;;;1.50;;
45476;SDS011;31958;51.756;-2.556;2023-06-26T07:54:55;5.03;;;1.30;;
45476;SDS011;31958;51.756;-2.556;2023-06-26T07:57:21;5.07;;;1.60;;
45476;SDS011;31958;51.756;-2.556;2023-06-26T07:59:46;6.13;;;1.17;;
45476;SDS011;31958;51.756;-2.556;2023-06-26T08:02:11;4.07;;;1.33;;
45476;SDS011;31958;51.756;-2.556;2023-06-26T08:04:37;6.35;;;1.55;;
45476;SDS011;31958;51.756;-2.556;2023-06-26T08:07:02;2.83;;;1.00;;
45476;SDS011;31958;51.756;-2.556;2023-06-26T08:09:29;4.47;;;1.15;;
45476;SDS011;31958;51.756;-2.556;2023-06-26T08:11:54;4.20;;;1.40;;
45476;SDS011;31958;51.756;-2.556;2023-06-26T08:14:20;6.50;;;1.42;;
45476;SDS011;31958;51.756;-2.556;2023-06-26T08:16:46;4.25;;;1.00;;
45476;SDS011;31958;51.756;-2.556;2023-06-26T08:19:12;5.85;;;1.40;;
45476;SDS011;31958;51.756;-2.556;2023-06-26T08:21:37;4.35;;;1.10;;
45476;SDS011;31958;51.756;-2.556;2023-06-26T08:24:03;4.50;;;1.27;;
45476;SDS011;31958;51.756;-2.556;2023-06-26T08:26:28;6.15;;;1.52;;
45476;SDS011;31958;51.756;-2.556;2023-06-26T08:28:54;4.47;;;1.25;;
45476;SDS011;31958;51.756;-2.556;2023-06-26T08:31:20;3.92;;;1.20;;
45476;SDS011;31958;51.756;-2.556;2023-06-26T08:33:45;4.22;;;1.20;;
45476;SDS011;31958;51.756;-2.556;2023-06-26T08:36:11;4.80;;;1.20;;
45476;SDS011;31958;51.756;-2.556;2023-06-26T08:38:36;3.55;;;1.10;;
45476;SDS011;31958;51.756;-2.556;2023-06-26T08:41:03;4.95;;;1.00;;
45476;SDS011;31958;51.756;-2.556;2023-06-26T08:43:28;5.28;;;1.25;;
45476;SDS011;31958;51.756;-2.556;2023-06-26T08:45:54;3.35;;;1.00;;
45476;SDS011;31958;51.756;-2.556;2023-06-26T08:48:20;4.45;;;1.10;;
45476;SDS011;31958;51.756;-2.556;2023-06-26T08:50:46;3.45;;;1.00;;
45476;SDS011;31958;51.756;-2.556;2023-06-26T08:53:14;5.43;;;1.40;;
45476;SDS011;31958;51.756;-2.556;2023-06-26T08:55:43;4.55;;;0.95;;
45476;SDS011;31958;51.756;-2.556;2023-06-26T08:58:08;4.68;;;1.20;;
45476;SDS011;31958;51.756;-2.556;2023-06-26T09:00:35;5.00;;;1.17;;
45476;SDS011;31958;51.756;-2.556;2023-06-26T09:03:00;5.72;;;1.17;;
45476;SDS011;31958;51.756;-2.556;2023-06-26T09:05:28;6.70;;;1.10;;
45476;SDS011;31958;51.756;-2.556;2023-06-26T09:07:54;3.50;;;0.80;;
45476;SDS011;31958;51.756;-2.556;2023-06-26T09:10:22;3.45;;;1.10;;
45476;SDS011;31958;51.756;-2.556;2023-06-26T09:12:47;3.55;;;1.00;;
45476;SDS011;31958;51.756;-2.556;2023-06-26T09:15:19;4.30;;;1.08;;
45476;SDS011;31958;51.756;-2.556;2023-06-26T09:17:45;4.70;;;1.15;;
45476;SDS011;31958;51.756;-2.556;2023-06-26T09:20:10;2.75;;;0.90;;
45476;SDS011;31958;51.756;-2.556;2023-06-26T09:22:36;2.95;;;1.13;;
45476;SDS011;31958;51.756;-2.556;2023-06-26T09:25:03;2.90;;;1.10;;
45476;SDS011;31958;51.756;-2.556;2023-06-26T09:27:30;4.13;;;1.40;;
45476;SDS011;31958;51.756;-2.556;2023-06-26T09:29:55;3.35;;;0.90;;
45476;SDS011;31958;51.756;-2.556;2023-06-26T09:32:24;4.68;;;1.42;;
45476;SDS011;31958;51.756;-2.556;2023-06-26T09:34:51;6.97;;;1.45;;
45476;SDS011;31958;51.756;-2.556;2023-06-26T09:37:17;3.08;;;1.02;;
45476;SDS011;31958;51.756;-2.556;2023-06-26T09:39:43;2.50;;;0.90;;
45476;SDS011;31958;51.756;-2.556;2023-06-26T09:42:09;2.85;;;0.90;;
45476;SDS011;31958;51.756;-2.556;2023-06-26T09:44:34;2.53;;;0.93;;
45476;SDS011;31958;51.756;-2.556;2023-06-26T09:47:01;6.53;;;1.20;;
45476;SDS011;31958;51.756;-2.556;2023-06-26T09:49:28;3.72;;;1.08;;
45476;SDS011;31958;51.756;-2.556;2023-06-26T09:51:53;3.72;;;1.40;;
45476;SDS011;31958;51.756;-2.556;2023-06-26T09:54:18;6.32;;;1.15;;
45476;SDS011;31958;51.756;-2.556;2023-06-26T09:56:46;2.60;;;1.13;;
45476;SDS011;31958;51.756;-2.556;2023-06-26T09:59:12;4.00;;;1.20;;
45476;SDS011;31958;51.756;-2.556;2023-06-26T10:01:42;2.92;;;0.98;;
45476;SDS011;31958;51.756;-2.556;2023-06-26T10:04:10;3.53;;;0.80;;
45476;SDS011;31958;51.756;-2.556;2023-06-26T10:06:36;4.88;;;1.27;;
45476;SDS011;31958;51.756;-2.556;2023-06-26T10:09:06;3.45;;;1.10;;
45476;SDS011;31958;51.756;-2.556;2023-06-26T10:14:27;2.08;;;0.85;;
45476;SDS011;31958;51.756;-2.556;2023-06-26T10:16:56;4.90;;;1.20;;
45476;SDS011;31958;51.756;-2.556;2023-06-26T10:19:23;6.13;;;1.13;;
45476;SDS011;31958;51.756;-2.556;2023-06-26T10:21:54;2.67;;;0.95;;
45476;SDS011;31958;51.756;-2.556;2023-06-26T10:24:20;9.25;;;1.35;;
45476;SDS011;31958;51.756;-2.556;2023-06-26T10:26:46;5.20;;;1.10;;
45476;SDS011;31958;51.756;-2.556;2023-06-26T10:29:15;3.58;;;1.08;;
45476;SDS011;31958;51.756;-2.556;2023-06-26T10:31:42;5.00;;;1.40;;
45476;SDS011;31958;51.756;-2.556;2023-06-26T10:34:10;6.75;;;1.30;;
45476;SDS011;31958;51.756;-2.556;2023-06-26T10:36:36;4.28;;;1.02;;
45476;SDS011;31958;51.756;-2.556;2023-06-26T10:39:03;5.45;;;1.08;;
45476;SDS011;31958;51.756;-2.556;2023-06-26T10:41:36;5.55;;;1.35;;
45476;SDS011;31958;51.756;-2.556;2023-06-26T10:44:06;5.03;;;1.10;;
45476;SDS011;31958;51.756;-2.556;2023-06-26T10:46:49;6.30;;;1.38;;
45476;SDS011;31958;51.756;-2.556;2023-06-26T10:51:46;4.55;;;1.00;;
45476;SDS011;31958;51.756;-2.556;2023-06-26T10:54:19;4.07;;;0.98;;
45476;SDS011;31958;51.756;-2.556;2023-06-26T10:56:45;2.83;;;1.02;;
45476;SDS011;31958;51.756;-2.556;2023-06-26T10:59:15;2.90;;;1.00;;
45476;SDS011;31958;51.756;-2.556;2023-06-26T11:01:42;2.92;;;0.75;;
45476;SDS011;31958;51.756;-2.556;2023-06-26T11:04:08;3.17;;;1.10;;
45476;SDS011;31958;51.756;-2.556;2023-06-26T11:06:35;2.00;;;1.00;;
45476;SDS011;31958;51.756;-2.556;2023-06-26T11:14:28;6.55;;;1.00;;
45476;SDS011;31958;51.756;-2.556;2023-06-26T11:16:55;2.97;;;0.80;;
45476;SDS011;31958;51.756;-2.556;2023-06-26T11:19:22;3.40;;;0.88;;
45476;SDS011;31958;51.756;-2.556;2023-06-26T11:21:47;2.10;;;0.90;;
45476;SDS011;31958;51.756;-2.556;2023-06-26T11:24:13;4.05;;;0.90;;
45476;SDS011;31958;51.756;-2.556;2023-06-26T11:26:39;2.13;;;0.88;;
45476;SDS011;31958;51.756;-2.556;2023-06-26T11:29:05;4.03;;;1.15;;
45476;SDS011;31958;51.756;-2.556;2023-06-26T11:31:31;3.10;;;0.98;;
45476;SDS011;31958;51.756;-2.556;2023-06-26T11:33:58;3.05;;;0.80;;
45476;SDS011;31958;51.756;-2.556;2023-06-26T11:36:25;4.05;;;0.98;;
45476;SDS011;31958;51.756;-2.556;2023-06-26T11:38:56;1.65;;;0.68;;
45476;SDS011;31958;51.756;-2.556;2023-06-26T11:41:26;2.10;;;0.88;;
45476;SDS011;31958;51.756;-2.556;2023-06-26T11:43:53;2.83;;;1.00;;
45476;SDS011;31958;51.756;-2.556;2023-06-26T11:46:21;2.70;;;0.88;;
45476;SDS011;31958;51.756;-2.556;2023-06-26T11:48:47;4.32;;;0.95;;
45476;SDS011;31958;51.756;-2.556;2023-06-26T11:51:13;3.00;;;1.20;;
45476;SDS011;31958;51.756;-2.556;2023-06-26T11:53:42;2.30;;;0.90;;
45476;SDS011;31958;51.756;-2.556;2023-06-26T11:56:09;3.75;;;1.20;;
45476;SDS011;31958;51.756;-2.556;2023-06-26T11:58:35;3.70;;;0.80;;
45476;SDS011;31958;51.756;-2.556;2023-06-26T12:01:00;3.67;;;1.00;;
45476;SDS011;31958;51.756;-2.556;2023-06-26T12:03:26;4.88;;;0.93;;
45476;SDS011;31958;51.756;-2.556;2023-06-26T12:05:51;2.85;;;0.80;;
45476;SDS011;31958;51.756;-2.556;2023-06-26T12:08:17;4.70;;;1.00;;
45476;SDS011;31958;51.756;-2.556;2023-06-26T12:10:43;3.60;;;0.90;;
45476;SDS011;31958;51.756;-2.556;2023-06-26T12:13:08;3.80;;;0.75;;
45476;SDS011;31958;51.756;-2.556;2023-06-26T12:15:33;5.63;;;0.80;;
45476;SDS011;31958;51.756;-2.556;2023-06-26T12:17:59;4.00;;;0.93;;
45476;SDS011;31958;51.756;-2.556;2023-06-26T12:20:25;2.83;;;1.10;;
45476;SDS011;31958;51.756;-2.556;2023-06-26T12:22:50;3.20;;;1.00;;
45476;SDS011;31958;51.756;-2.556;2023-06-26T12:25:23;3.75;;;0.90;;
45476;SDS011;31958;51.756;-2.556;2023-06-26T12:27:49;4.13;;;1.00;;
45476;SDS011;31958;51.756;-2.556;2023-06-26T12:30:15;2.85;;;0.80;;
45476;SDS011;31958;51.756;-2.556;2023-06-26T12:32:43;6.97;;;0.98;;
45476;SDS011;31958;51.756;-2.556;2023-06-26T12:35:10;3.75;;;0.93;;
45476;SDS011;31958;51.756;-2.556;2023-06-26T12:37:38;4.40;;;0.98;;
45476;SDS011;31958;51.756;-2.556;2023-06-26T12:40:18;1.77;;;0.73;;
45476;SDS011;31958;51.756;-2.556;2023-06-26T12:42:47;2.67;;;0.88;;
45476;SDS011;31958;51.756;-2.556;2023-06-26T12:45:12;4.07;;;1.05;;
45476;SDS011;31958;51.756;-2.556;2023-06-26T12:47:38;3.95;;;1.00;;
45476;SDS011;31958;51.756;-2.556;2023-06-26T12:50:06;2.72;;;1.00;;
45476;SDS011;31958;51.756;-2.556;2023-06-26T12:52:32;5.20;;;1.10;;
45476;SDS011;31958;51.756;-2.556;2023-06-26T12:54:57;3.05;;;0.90;;
45476;SDS011;31958;51.756;-2.556;2023-06-26T12:57:22;3.10;;;0.93;;
45476;SDS011;31958;51.756;-2.556;2023-06-26T12:59:48;3.20;;;1.13;;
45476;SDS011;31958;51.756;-2.556;2023-06-26T13:02:14;4.05;;;1.02;;
45476;SDS011;31958;51.756;-2.556;2023-06-26T13:04:39;5.38;;;1.25;;
45476;SDS011;31958;51.756;-2.556;2023-06-26T13:07:06;6.60;;;1.00;;
45476;SDS011;31958;51.756;-2.556;2023-06-26T13:09:32;2.53;;;0.95;;
45476;SDS011;31958;51.756;-2.556;2023-06-26T13:11:58;7.30;;;1.20;;
45476;SDS011;31958;51.756;-2.556;2023-06-26T13:14:23;4.28;;;1.10;;
45476;SDS011;31958;51.756;-2.556;2023-06-26T13:16:49;10.48;;;1.40;;
45476;SDS011;31958;51.756;-2.556;2023-06-26T13:19:14;5.32;;;1.20;;
45476;SDS011;31958;51.756;-2.556;2023-06-26T13:21:40;1.92;;;0.80;;
45476;SDS011;31958;51.756;-2.556;2023-06-26T13:24:05;2.00;;;0.80;;
45476;SDS011;31958;51.756;-2.556;2023-06-26T13:26:31;2.67;;;1.08;;
45476;SDS011;31958;51.756;-2.556;2023-06-26T13:28:56;2.65;;;1.00;;
45476;SDS011;31958;51.756;-2.556;2023-06-26T13:31:22;3.50;;;0.90;;
45476;SDS011;31958;51.756;-2.556;2023-06-26T13:33:47;2.67;;;1.20;;
45476;SDS011;31958;51.756;-2.556;2023-06-26T13:36:19;5.13;;;1.20;;
45476;SDS011;31958;51.756;-2.556;2023-06-26T13:38:44;3.33;;;1.30;;
45476;SDS011;31958;51.756;-2.556;2023-06-26T13:41:10;5.20;;;1.15;;
45476;SDS011;31958;51.756;-2.556;2023-06-26T13:43:35;3.17;;;1.10;;
45476;SDS011;31958;51.756;-2.556;2023-06-26T13:46:01;3.60;;;0.90;;
45476;SDS011;31958;51.756;-2.556;2023-06-26T13:48:27;2.83;;;1.10;;
45476;SDS011;31958;51.756;-2.556;2023-06-26T13:50:53;3.03;;;0.88;;
45476;SDS011;31958;51.756;-2.556;2023-06-26T13:53:18;3.75;;;1.30;;
45476;SDS011;31958;51.756;-2.556;2023-06-26T13:55:44;2.38;;;0.80;;
45476;SDS011;31958;51.756;-2.556;2023-06-26T13:58:10;2.72;;;1.17;;
45476;SDS011;31958;51.756;-2.556;2023-06-26T14:00:36;2.60;;;0.90;;
45476;SDS011;31958;51.756;-2.556;2023-06-26T14:03:02;2.63;;;0.80;;
45476;SDS011;31958;51.756;-2.556;2023-06-26T14:05:29;3.33;;;1.02;;
45476;SDS011;31958;51.756;-2.556;2023-06-26T14:07:54;4.22;;;1.10;;
45476;SDS011;31958;51.756;-2.556;2023-06-26T14:10:20;5.20;;;1.35;;
45476;SDS011;31958;51.756;-2.556;2023-06-26T14:12:46;4.28;;;1.08;;
45476;SDS011;31958;51.756;-2.556;2023-06-26T14:15:11;4.97;;;1.15;;
45476;SDS011;31958;51.756;-2.556;2023-06-26T14:17:37;5.70;;;1.02;;
45476;SDS011;31958;51.756;-2.556;2023-06-26T14:20:05;3.97;;;1.10;;
45476;SDS011;31958;51.756;-2.556;2023-06-26T14:22:33;5.20;;;1.10;;
45476;SDS011;31958;51.756;-2.556;2023-06-26T14:24:59;3.90;;;1.10;;
45476;SDS011;31958;51.756;-2.556;2023-06-26T14:27:24;2.08;;;0.80;;
45476;SDS011;31958;51.756;-2.556;2023-06-26T14:29:49;2.58;;;1.17;;
45476;SDS011;31958;51.756;-2.556;2023-06-26T14:32:15;2.42;;;0.90;;
45476;SDS011;31958;51.756;-2.556;2023-06-26T14:34:40;4.78;;;1.17;;
45476;SDS011;31958;51.756;-2.556;2023-06-26T14:37:05;1.92;;;0.82;;
45476;SDS011;31958;51.756;-2.556;2023-06-26T14:39:31;1.77;;;0.80;;
45476;SDS011;31958;51.756;-2.556;2023-06-26T14:41:56;2.80;;;0.73;;
45476;SDS011;31958;51.756;-2.556;2023-06-26T14:44:21;3.42;;;1.00;;
45476;SDS011;31958;51.756;-2.556;2023-06-26T14:46:47;4.20;;;0.95;;
45476;SDS011;31958;51.756;-2.556;2023-06-26T14:49:12;3.13;;;0.80;;